createdAt,value
2019-06-07T00:00:35.067Z,0.93
2019-06-07T00:02:50.218Z,1.70
2019-06-07T00:05:20.693Z,0.77
2019-06-07T00:07:51.172Z,0.70
2019-06-07T00:10:35.977Z,0.83
2019-06-07T00:12:53.857Z,0.53
2019-06-07T00:15:28.707Z,0.60
2019-06-07T00:17:56.715Z,0.53
2019-06-07T00:20:27.536Z,0.60
2019-06-07T00:22:57.988Z,0.80
2019-06-07T00:25:28.488Z,0.50
2019-06-07T00:27:58.896Z,0.60
2019-06-07T00:30:44.556Z,0.93
2019-06-07T00:33:01.500Z,0.70
2019-06-07T00:35:31.979Z,0.30
2019-06-07T00:38:02.312Z,0.50
2019-06-07T00:40:32.648Z,0.70
2019-06-07T00:43:03.032Z,0.83
2019-06-07T00:45:33.451Z,0.57
2019-06-07T00:48:03.729Z,0.60
2019-06-07T00:50:34.176Z,0.83
2019-06-07T00:53:17.158Z,0.57
2019-06-07T00:55:37.131Z,1.70
2019-06-07T00:58:07.839Z,0.93
2019-06-07T01:02:29.067Z,0.80
2019-06-07T01:04:56.643Z,0.97
2019-06-07T01:07:27.296Z,1.23
2019-06-07T01:09:57.808Z,0.80
2019-06-07T01:12:28.413Z,1.63
2019-06-07T01:14:58.884Z,0.53
2019-06-07T01:17:43.670Z,1.70
2019-06-07T01:20:02.863Z,1.03
2019-06-07T01:22:33.324Z,0.87
2019-06-07T01:25:03.763Z,0.77
2019-06-07T01:27:34.173Z,1.20
2019-06-07T01:30:05.952Z,1.03
2019-06-07T01:32:36.420Z,1.00
2019-06-07T01:35:07.904Z,0.57
2019-06-07T01:37:38.330Z,0.93
2019-06-07T01:40:11.052Z,1.17
2019-06-07T01:42:41.463Z,0.77
2019-06-07T01:45:18.103Z,1.13
2019-06-07T01:47:48.403Z,0.73
2019-06-07T01:50:23.314Z,1.13
2019-06-07T01:52:52.892Z,0.80
2019-06-07T01:55:26.749Z,1.00
2019-06-07T01:57:55.459Z,0.80
2019-06-07T02:00:28.697Z,1.10
2019-06-07T02:02:58.104Z,0.90
2019-06-07T02:05:31.963Z,0.80
2019-06-07T02:08:00.647Z,0.70
2019-06-07T02:10:33.772Z,1.40
2019-06-07T02:13:03.074Z,0.80
2019-06-07T02:15:36.691Z,1.30
2019-06-07T02:18:05.799Z,0.60
2019-06-07T02:20:36.224Z,1.60
2019-06-07T02:23:06.660Z,1.57
2019-06-07T02:25:45.955Z,1.87
2019-06-07T02:28:27.681Z,1.00
2019-06-07T02:30:53.219Z,1.40
2019-06-07T02:33:13.277Z,1.27
2019-06-07T02:35:43.745Z,1.03
2019-06-07T02:38:14.170Z,0.53
2019-06-07T02:40:44.755Z,0.70
2019-06-07T02:43:15.161Z,1.07
2019-06-07T02:45:45.654Z,1.43
2019-06-07T02:48:16.046Z,1.60
2019-06-07T02:50:46.680Z,1.10
2019-06-07T02:53:17.244Z,0.87
2019-06-07T02:56:34.359Z,0.67
2019-06-07T02:58:19.814Z,0.97
2019-06-07T03:02:26.542Z,1.53
2019-06-07T03:04:56.316Z,2.00
2019-06-07T03:07:33.012Z,1.40
2019-06-07T03:10:03.772Z,1.73
2019-06-07T03:12:35.581Z,1.47
2019-06-07T03:15:06.594Z,1.77
2019-06-07T03:17:52.772Z,0.83
2019-06-07T03:20:23.941Z,1.00
2019-06-07T03:22:55.590Z,1.00
2019-06-07T03:25:30.832Z,1.30
2019-06-07T03:28:01.435Z,0.73
2019-06-07T03:30:39.831Z,0.97
2019-06-07T03:33:03.850Z,0.97
2019-06-07T03:35:35.309Z,0.80
2019-06-07T03:38:06.369Z,0.73
2019-06-07T03:40:39.665Z,2.23
2019-06-07T03:43:09.095Z,1.13
2019-06-07T03:45:41.493Z,1.33
2019-06-07T03:48:11.787Z,1.47
2019-06-07T03:50:42.642Z,1.57
2019-06-07T03:53:13.072Z,1.57
2019-06-07T03:55:43.388Z,1.30
2019-06-07T03:58:31.852Z,0.97
2019-06-07T04:00:45.946Z,1.00
2019-06-07T04:03:32.758Z,1.93
2019-06-07T04:05:48.748Z,1.10
2019-06-07T04:08:19.526Z,1.77
2019-06-07T04:10:59.622Z,0.97
2019-06-07T04:13:22.025Z,1.17
2019-06-07T04:15:52.770Z,0.70
2019-06-07T04:18:23.165Z,1.00
2019-06-07T04:20:53.589Z,0.97
2019-06-07T04:23:28.285Z,1.67
2019-06-07T04:25:55.911Z,1.57
2019-06-07T04:29:15.613Z,1.20
2019-06-07T04:30:58.367Z,1.80
2019-06-07T04:33:28.907Z,1.93
2019-06-07T04:36:00.370Z,1.50
2019-06-07T04:38:39.323Z,1.00
2019-06-07T04:41:05.938Z,1.50
2019-06-07T04:43:40.945Z,1.67
2019-06-07T04:46:12.530Z,1.30
2019-06-07T04:48:45.572Z,2.00
2019-06-07T04:51:18.154Z,2.13
2019-06-07T04:53:48.831Z,1.80
2019-06-07T04:56:19.334Z,1.70
2019-06-07T05:02:24.854Z,2.17
2019-06-07T05:04:55.355Z,1.30
2019-06-07T05:07:26.646Z,1.77
2019-06-07T05:09:57.268Z,1.83
2019-06-07T05:12:27.593Z,2.17
2019-06-07T05:14:58.028Z,2.57
2019-06-07T05:17:28.925Z,1.50
2019-06-07T05:20:00.447Z,1.20
2019-06-07T05:22:33.470Z,1.87
2019-06-07T05:25:02.708Z,2.70
2019-06-07T05:27:35.514Z,1.93
2019-06-07T05:30:13.758Z,1.53
2019-06-07T05:32:43.668Z,2.10
2019-06-07T05:35:11.671Z,1.97
2019-06-07T05:37:45.805Z,1.47
2019-06-07T05:40:17.623Z,1.50
2019-06-07T05:42:48.018Z,1.70
2019-06-07T05:45:24.743Z,1.70
2019-06-07T05:47:55.327Z,1.87
2019-06-07T05:50:38.905Z,2.47
2019-06-07T05:52:57.933Z,2.30
2019-06-07T05:55:29.128Z,2.63
2019-06-07T05:58:01.813Z,1.70
2019-06-07T06:00:34.710Z,1.40
2019-06-07T06:03:05.975Z,1.70
2019-06-07T06:05:42.110Z,1.37
2019-06-07T06:08:09.214Z,1.40
2019-06-07T06:10:42.942Z,1.73
2019-06-07T06:13:12.217Z,2.37
2019-06-07T06:15:56.084Z,2.50
2019-06-07T06:18:14.988Z,1.77
2019-06-07T06:21:09.755Z,1.23
2019-06-07T06:23:17.797Z,1.33
2019-06-07T06:25:55.939Z,2.43
2019-06-07T06:28:20.455Z,1.93
2019-06-07T06:30:51.005Z,2.30
2019-06-07T06:33:33.416Z,0.97
2019-06-07T06:35:53.706Z,1.50
2019-06-07T06:38:24.126Z,1.23
2019-06-07T06:41:13.877Z,1.60
2019-06-07T06:43:26.754Z,1.27
2019-06-07T06:45:57.256Z,1.53
2019-06-07T06:48:27.803Z,1.87
2019-06-07T06:50:58.229Z,1.53
2019-06-07T06:53:28.564Z,1.70
2019-06-07T06:55:59.093Z,1.03
2019-06-07T06:58:29.469Z,1.97
2019-06-07T07:02:25.391Z,1.33
2019-06-07T07:04:56.020Z,1.73
2019-06-07T07:07:29.001Z,1.33
2019-06-07T07:10:00.302Z,1.30
2019-06-07T07:12:30.721Z,1.13
2019-06-07T07:15:01.156Z,1.60
2019-06-07T07:17:47.669Z,0.93
2019-06-07T07:20:04.287Z,1.07
2019-06-07T07:22:35.008Z,1.43
2019-06-07T07:25:05.972Z,1.00
2019-06-07T07:27:36.493Z,1.23
2019-06-07T07:30:35.410Z,1.43
2019-06-07T07:32:40.534Z,0.80
2019-06-07T07:35:11.551Z,1.50
2019-06-07T07:37:45.318Z,0.57
2019-06-07T07:42:47.622Z,1.30
2019-06-07T07:45:18.453Z,1.57
2019-06-07T07:48:03.184Z,1.07
2019-06-07T07:50:21.243Z,1.33
2019-06-07T07:52:56.028Z,1.77
2019-06-07T07:55:24.168Z,0.90
2019-06-07T07:58:01.089Z,1.30
2019-06-07T08:03:04.354Z,1.10
2019-06-07T08:05:42.506Z,1.37
2019-06-07T08:08:07.825Z,1.07
2019-06-07T08:10:37.658Z,1.17
2019-06-07T08:13:24.493Z,1.33
2019-06-07T08:15:40.389Z,0.97
2019-06-07T08:18:10.869Z,1.00
2019-06-07T08:21:05.043Z,1.30
2019-06-07T08:23:16.250Z,0.93
2019-06-07T08:25:46.851Z,1.00
2019-06-07T08:28:17.427Z,1.83
2019-06-07T08:30:53.249Z,1.33
2019-06-07T08:33:27.251Z,0.47
2019-06-07T08:38:33.835Z,0.70
2019-06-07T08:41:05.039Z,1.13
2019-06-07T08:43:29.186Z,1.37
2019-06-07T08:46:04.374Z,0.57
2019-06-07T08:48:31.652Z,1.53
2019-06-07T08:51:08.307Z,0.83
2019-06-07T08:53:34.582Z,1.57
2019-06-07T08:56:09.166Z,1.00
2019-06-07T08:58:37.315Z,1.17
2019-06-07T09:02:25.622Z,1.07
2019-06-07T09:04:59.199Z,1.57
2019-06-07T09:07:27.515Z,0.83
2019-06-07T09:10:03.469Z,0.77
2019-06-07T09:12:29.893Z,0.73
2019-06-07T09:15:14.780Z,0.57
2019-06-07T09:17:34.185Z,0.97
2019-06-07T09:20:09.135Z,0.87
2019-06-07T09:22:37.807Z,1.23
2019-06-07T09:25:20.189Z,0.93
2019-06-07T09:27:43.139Z,0.97
2019-06-07T09:30:18.543Z,0.70
2019-06-07T09:32:46.176Z,1.10
2019-06-07T09:35:18.225Z,0.87
2019-06-07T09:38:07.693Z,0.77
2019-06-07T09:40:31.530Z,0.93
2019-06-07T09:43:46.730Z,0.90
2019-06-07T09:45:34.554Z,1.07
2019-06-07T09:48:12.629Z,0.73
2019-06-07T09:50:37.717Z,1.07
2019-06-07T09:53:20.843Z,0.43
2019-06-07T09:55:40.941Z,0.80
2019-06-07T09:58:48.690Z,0.77
2019-06-07T10:00:47.147Z,1.07
2019-06-07T10:03:21.950Z,1.00
2019-06-07T10:05:49.783Z,1.10
2019-06-07T10:09:26.288Z,0.80
2019-06-07T10:10:52.708Z,1.10
2019-06-07T10:13:23.282Z,1.30
2019-06-07T10:15:53.803Z,0.80
2019-06-07T10:18:24.519Z,0.90
2019-06-07T10:20:55.148Z,0.77
2019-06-07T10:23:25.569Z,1.23
2019-06-07T10:25:56.022Z,1.50
2019-06-07T10:28:26.487Z,1.27
2019-06-07T10:30:56.979Z,1.13
2019-06-07T10:33:27.544Z,1.07
2019-06-07T10:35:58.127Z,1.10
2019-06-07T10:38:28.651Z,0.80
2019-06-07T10:40:59.086Z,1.57
2019-06-07T10:43:29.550Z,1.60
2019-06-07T10:46:01.357Z,1.20
2019-06-07T10:48:31.844Z,1.20
2019-06-07T10:51:06.182Z,1.30
2019-06-07T10:53:36.700Z,1.20
2019-06-07T10:56:07.116Z,0.80
2019-06-07T10:58:37.557Z,0.73
2019-06-07T11:02:23.078Z,0.90
2019-06-07T11:04:53.462Z,1.07
2019-06-07T11:07:23.987Z,0.80
2019-06-07T11:10:06.178Z,1.23
2019-06-07T11:12:26.767Z,1.13
2019-06-07T11:14:57.090Z,0.90
2019-06-07T11:17:27.666Z,0.93
2019-06-07T11:19:58.056Z,1.33
2019-06-07T11:22:28.403Z,1.40
2019-06-07T11:24:58.839Z,1.23
2019-06-07T11:27:29.043Z,1.50
2019-06-07T11:29:59.372Z,1.43
2019-06-07T11:32:29.778Z,0.97
2019-06-07T11:35:00.303Z,1.10
2019-06-07T11:37:30.538Z,1.47
2019-06-07T11:40:00.885Z,1.43
2019-06-07T11:42:31.481Z,0.80
2019-06-07T11:45:02.088Z,1.17
2019-06-07T11:47:32.370Z,1.57
2019-06-07T11:50:02.815Z,1.20
2019-06-07T11:52:33.409Z,1.27
2019-06-07T11:55:04.050Z,1.23
2019-06-07T11:57:34.511Z,1.07
2019-06-07T12:00:07.593Z,0.90
2019-06-07T12:02:38.180Z,1.22
2019-06-07T12:05:12.610Z,1.00
2019-06-07T12:07:41.446Z,1.40
2019-06-07T12:10:12.600Z,1.20
2019-06-07T12:12:43.163Z,1.35
2019-06-07T12:15:15.014Z,1.33
2019-06-07T12:17:45.522Z,1.27
2019-06-07T12:20:20.457Z,1.20
2019-06-07T12:22:50.103Z,1.12
2019-06-07T12:25:24.823Z,1.17
2019-06-07T12:27:55.661Z,1.22
2019-06-07T12:30:28.081Z,1.30
2019-06-07T12:32:58.168Z,0.75
2019-06-07T12:35:28.677Z,1.32
2019-06-07T12:37:59.003Z,1.20
2019-06-07T12:40:32.290Z,1.20
2019-06-07T12:43:01.574Z,1.10
2019-06-07T12:45:44.425Z,1.20
2019-06-07T12:48:04.129Z,1.27
2019-06-07T12:50:42.454Z,1.67
2019-06-07T12:53:07.273Z,1.35
2019-06-07T12:55:37.795Z,1.67
2019-06-07T12:58:08.065Z,1.20
2019-06-07T13:02:24.022Z,1.63
2019-06-07T13:04:54.940Z,1.67
2019-06-07T13:07:25.476Z,1.22
2019-06-07T13:09:55.885Z,1.25
2019-06-07T13:12:26.586Z,1.10
2019-06-07T13:15:00.505Z,2.30
2019-06-07T13:17:30.938Z,1.25
2019-06-07T13:20:01.361Z,1.72
2019-06-07T13:22:31.774Z,1.40
2019-06-07T13:25:02.292Z,1.60
2019-06-07T13:27:33.820Z,1.25
2019-06-07T13:30:10.064Z,1.15
2019-06-07T13:32:37.644Z,1.32
2019-06-07T13:35:08.555Z,1.80
2019-06-07T13:37:38.999Z,1.75
2019-06-07T13:40:11.070Z,1.27
2019-06-07T13:42:41.319Z,1.15
2019-06-07T13:45:13.472Z,1.30
2019-06-07T13:47:43.897Z,1.10
2019-06-07T13:50:15.123Z,1.42
2019-06-07T13:52:46.735Z,1.30
2019-06-07T13:55:19.941Z,1.52
2019-06-07T13:57:50.653Z,1.37
2019-06-07T14:00:23.090Z,1.15
2019-06-07T14:02:53.380Z,1.22
2019-06-07T14:05:25.052Z,0.95
2019-06-07T14:07:56.589Z,0.88
2019-06-07T14:10:27.592Z,1.32
2019-06-07T14:12:58.256Z,1.47
2019-06-07T14:15:33.695Z,1.55
2019-06-07T14:18:00.947Z,0.98
2019-06-07T14:20:34.613Z,1.45
2019-06-07T14:23:04.009Z,1.40
2019-06-07T14:25:34.528Z,1.00
2019-06-07T14:28:11.080Z,0.95
2019-06-07T14:30:37.500Z,1.02
2019-06-07T14:33:07.977Z,0.95
2019-06-07T14:35:38.539Z,1.40
2019-06-07T14:38:09.016Z,1.75
2019-06-07T14:40:39.588Z,0.90
2019-06-07T14:43:10.056Z,1.00
2019-06-07T14:45:40.407Z,1.12
2019-06-07T14:48:10.844Z,1.40
2019-06-07T14:50:41.277Z,1.32
2019-06-07T14:53:11.582Z,1.00
2019-06-07T14:55:41.991Z,1.00
2019-06-07T14:58:12.247Z,1.02
2019-06-07T15:02:22.275Z,1.20
2019-06-07T15:04:54.553Z,0.88
2019-06-07T15:07:24.929Z,0.80
2019-06-07T15:09:55.367Z,1.00
2019-06-07T15:12:27.472Z,1.20
2019-06-07T15:14:58.083Z,1.47
2019-06-07T15:17:28.460Z,1.12
2019-06-07T15:19:58.797Z,1.12
2019-06-07T15:22:30.185Z,0.90
2019-06-07T15:25:00.666Z,1.17
2019-06-07T15:27:31.317Z,1.20
2019-06-07T15:30:09.476Z,1.15
2019-06-07T15:32:35.591Z,1.57
2019-06-07T15:35:06.640Z,1.42
2019-06-07T15:37:37.149Z,1.02
2019-06-07T15:40:09.497Z,1.67
2019-06-07T15:42:51.298Z,0.75
2019-06-07T15:45:12.519Z,1.10
2019-06-07T15:47:42.973Z,0.90
2019-06-07T15:50:14.034Z,1.27
2019-06-07T15:52:44.370Z,1.32
2019-06-07T15:55:15.984Z,1.20
2019-06-07T15:57:46.814Z,1.62
2019-06-07T16:00:20.032Z,1.50
2019-06-07T16:02:50.645Z,0.93
2019-06-07T16:05:21.500Z,1.17
2019-06-07T16:07:52.028Z,1.20
2019-06-07T16:10:23.115Z,1.10
2019-06-07T16:13:00.202Z,1.32
2019-06-07T16:15:25.851Z,1.22
2019-06-07T16:17:56.296Z,1.05
2019-06-07T16:20:26.688Z,1.42
2019-06-07T16:22:57.110Z,1.67
2019-06-07T16:25:27.585Z,1.47
2019-06-07T16:27:58.039Z,1.20
2019-06-07T16:30:28.543Z,1.35
2019-06-07T16:32:59.026Z,1.40
2019-06-07T16:35:30.074Z,2.40
2019-06-07T16:38:00.650Z,0.83
2019-06-07T16:40:30.966Z,1.55
2019-06-07T16:43:16.349Z,2.07
2019-06-07T16:45:33.642Z,1.73
2019-06-07T16:48:04.029Z,1.22
2019-06-07T16:50:34.370Z,1.20
2019-06-07T16:53:04.887Z,1.00
2019-06-07T16:55:36.396Z,0.77
2019-06-07T16:58:06.959Z,1.17
2019-06-07T17:02:23.235Z,0.80
2019-06-07T17:04:53.725Z,0.90
2019-06-07T17:07:24.223Z,1.00
2019-06-07T17:09:54.585Z,0.77
2019-06-07T17:12:25.096Z,1.13
2019-06-07T17:14:55.612Z,0.70
2019-06-07T17:17:26.207Z,1.27
2019-06-07T17:19:56.471Z,0.97
2019-06-07T17:22:27.312Z,1.43
2019-06-07T17:24:57.767Z,1.20
2019-06-07T17:27:28.292Z,1.10
2019-06-07T17:29:58.861Z,0.87
2019-06-07T17:32:29.241Z,0.70
2019-06-07T17:34:59.552Z,0.50
2019-06-07T17:37:30.201Z,1.50
2019-06-07T17:40:00.792Z,0.30
2019-06-07T17:42:31.259Z,0.50
2019-06-07T17:45:01.904Z,0.50
2019-06-07T17:47:32.596Z,0.37
2019-06-07T17:50:03.355Z,0.63
2019-06-07T17:52:34.220Z,0.30
2019-06-07T17:55:05.026Z,0.33
2019-06-07T17:57:35.536Z,0.20
2019-06-07T18:00:27.780Z,0.67
2019-06-07T18:02:40.182Z,0.40
2019-06-07T18:05:10.998Z,0.13
2019-06-07T18:07:43.482Z,1.27
2019-06-07T18:10:15.569Z,0.50
2019-06-07T18:12:46.255Z,0.50
2019-06-07T18:15:19.874Z,0.40
2019-06-07T18:17:50.694Z,0.20
2019-06-07T18:20:21.168Z,0.57
2019-06-07T18:22:51.571Z,0.47
2019-06-07T18:25:22.121Z,0.40
2019-06-07T18:27:52.785Z,0.20
2019-06-07T18:30:23.453Z,0.23
2019-06-07T18:32:55.064Z,0.20
2019-06-07T18:35:25.766Z,0.10
2019-06-07T18:37:56.442Z,0.20
2019-06-07T18:40:26.881Z,0.20
2019-06-07T18:42:57.521Z,0.20
2019-06-07T18:45:28.276Z,0.60
2019-06-07T18:47:58.871Z,0.23
2019-06-07T18:50:29.443Z,0.13
2019-06-07T18:52:59.878Z,0.30
2019-06-07T18:55:30.289Z,0.37
2019-06-07T18:58:00.838Z,0.50
2019-06-07T19:02:22.897Z,0.20
2019-06-07T19:04:54.220Z,0.10
2019-06-07T19:07:24.748Z,0.20
2019-06-07T19:09:55.231Z,0.17
2019-06-07T19:12:25.641Z,0.10
2019-06-07T19:14:57.511Z,0.10
2019-06-07T19:17:28.114Z,0.50
2019-06-07T19:19:58.578Z,0.20
2019-06-07T19:22:29.035Z,0.27
2019-06-07T19:25:00.485Z,0.20
2019-06-07T19:27:33.040Z,0.10
2019-06-07T19:30:03.274Z,0.30
2019-06-07T19:32:33.701Z,0.33
2019-06-07T19:35:04.361Z,0.30
2019-06-07T19:37:34.744Z,0.40
2019-06-07T19:40:06.003Z,0.30
2019-06-07T19:42:36.619Z,0.20
2019-06-07T19:45:28.912Z,0.40
2019-06-07T19:47:39.639Z,0.27
2019-06-07T19:50:10.482Z,0.10
2019-06-07T19:52:40.822Z,0.40
2019-06-07T19:55:12.606Z,0.30
2019-06-07T19:57:43.129Z,0.13
2019-06-07T20:00:15.269Z,0.37
2019-06-07T20:02:45.843Z,0.30
2019-06-07T20:05:18.817Z,0.20
2019-06-07T20:07:49.415Z,0.40
2019-06-07T20:10:20.785Z,0.10
2019-06-07T20:12:51.143Z,0.30
2019-06-07T20:15:28.861Z,0.10
2019-06-07T20:17:55.015Z,0.10
2019-06-07T20:20:25.592Z,0.20
2019-06-07T20:22:56.531Z,0.17
2019-06-07T20:25:26.905Z,0.40
2019-06-07T20:27:57.440Z,0.33
2019-06-07T20:30:27.878Z,0.27
2019-06-07T20:32:59.690Z,0.20
2019-06-07T20:35:30.319Z,0.30
2019-06-07T20:38:01.117Z,0.30
2019-06-07T20:40:31.412Z,0.30
2019-06-07T20:43:01.825Z,0.30
2019-06-07T20:45:33.921Z,0.47
2019-06-07T20:48:04.392Z,0.40
2019-06-07T20:50:34.771Z,0.30
2019-06-07T20:53:07.073Z,0.10
2019-06-07T20:55:37.849Z,0.10
2019-06-07T20:58:09.530Z,0.10
2019-06-07T21:02:23.125Z,0.30
2019-06-07T21:04:53.629Z,0.20
2019-06-07T21:07:24.167Z,0.10
2019-06-07T21:09:54.717Z,0.20
2019-06-07T21:12:26.386Z,0.23
2019-06-07T21:14:56.731Z,0.10
2019-06-07T21:17:26.414Z,0.20
2019-06-07T21:19:56.840Z,2.10
2019-06-07T21:22:27.594Z,0.20
2019-06-07T21:24:57.905Z,0.20
2019-06-07T21:27:28.638Z,0.43
2019-06-07T21:29:58.949Z,0.20
2019-06-07T21:32:29.160Z,0.20
2019-06-07T21:34:59.506Z,0.37
2019-06-07T21:37:29.977Z,0.30
2019-06-07T21:40:01.724Z,0.20
2019-06-07T21:42:32.481Z,0.10
2019-06-07T21:45:04.357Z,0.60
2019-06-07T21:47:35.054Z,0.10
2019-06-07T21:50:06.622Z,0.20
2019-06-07T21:52:37.318Z,0.10
2019-06-07T21:55:09.099Z,0.30
2019-06-07T21:57:39.665Z,0.40
2019-06-07T22:00:15.344Z,0.47
2019-06-07T22:02:45.855Z,0.30
2019-06-07T22:05:16.467Z,0.30
2019-06-07T22:07:46.848Z,0.33
2019-06-07T22:10:17.400Z,0.33
2019-06-07T22:12:47.726Z,0.20
2019-06-07T22:15:31.977Z,0.20
2019-06-07T22:17:50.505Z,0.57
2019-06-07T22:20:21.221Z,0.20
2019-06-07T22:22:51.576Z,0.30
2019-06-07T22:25:22.002Z,0.30
2019-06-07T22:27:52.429Z,0.27
2019-06-07T22:30:23.000Z,0.20
2019-06-07T22:32:53.358Z,0.37
2019-06-07T22:35:23.999Z,0.23
2019-06-07T22:37:54.164Z,0.73
2019-06-07T22:40:24.703Z,0.30
2019-06-07T22:42:55.099Z,0.30
2019-06-07T22:45:25.661Z,0.20
2019-06-07T22:47:56.227Z,0.40
2019-06-07T22:50:28.064Z,0.20
2019-06-07T22:52:58.503Z,0.27
2019-06-07T22:55:29.013Z,0.40
2019-06-07T22:57:59.788Z,0.27
2019-06-07T23:02:22.080Z,0.50
2019-06-07T23:04:52.445Z,0.30
2019-06-07T23:07:22.994Z,0.40
2019-06-07T23:09:53.387Z,0.20
2019-06-07T23:12:23.804Z,0.20
2019-06-07T23:14:54.258Z,0.43
2019-06-07T23:17:24.627Z,0.57
2019-06-07T23:19:55.057Z,0.30
2019-06-07T23:22:25.485Z,0.40
2019-06-07T23:24:55.880Z,0.20
2019-06-07T23:27:26.572Z,0.40
2019-06-07T23:29:56.911Z,0.30
2019-06-07T23:32:27.131Z,0.20
2019-06-07T23:34:57.584Z,0.20
2019-06-07T23:37:28.118Z,0.97
2019-06-07T23:39:58.417Z,0.20
2019-06-07T23:42:29.189Z,0.20
2019-06-07T23:44:59.699Z,0.53
2019-06-07T23:47:30.206Z,0.30
2019-06-07T23:50:00.686Z,0.27
2019-06-07T23:52:31.108Z,0.30
2019-06-07T23:55:01.537Z,0.30
2019-06-07T23:57:32.107Z,0.40
